Aviation Digital Data Service (ADDS)

Output produced by METARs form (1308 UTC 24 August 2019)
found at http://www.aviationweather.gov/metar/data/
 
METAR text: EKAH 241250Z AUTO 15004KT 080V220 9999NDV NCD 23/14 Q1027
Conditions at: EKAH (TIRSTRUP (CIV/MI, DK) observed 1250 UTC 24 August 2019
Temperature: 23.0°C (73°F)
Dewpoint: 14.0°C (57°F) [RH = 57%]
Pressure (altimeter): 30.32 inches Hg (1027.0 mb)
Winds: from the SSE (150 degrees) at 5 MPH (4 knots; 2.1 m/s)
Visibility: missing
Ceiling: at least 12,000 feet AGL
Clouds: sky clear below 12,000 feet AGL
Weather: no significant weather observed at this time

METAR text: EKAH 241220Z AUTO 15005KT 060V200 9999NDV NCD 22/14 Q1027
Conditions at: EKAH (TIRSTRUP (CIV/MI, DK) observed 1220 UTC 24 August 2019
Temperature: 22.0°C (72°F)
Dewpoint: 14.0°C (57°F) [RH = 60%]
Pressure (altimeter): 30.32 inches Hg (1027.0 mb)
Winds: from the SSE (150 degrees) at 6 MPH (5 knots; 2.6 m/s)
Visibility: missing
Ceiling: at least 12,000 feet AGL
Clouds: sky clear below 12,000 feet AGL
Weather: no significant weather observed at this time

METAR text: EKAH 241150Z AUTO 17005KT 110V210 9999NDV NCD 22/15 Q1027
Conditions at: EKAH (TIRSTRUP (CIV/MI, DK) observed 1150 UTC 24 August 2019
Temperature: 22.0°C (72°F)
Dewpoint: 15.0°C (59°F) [RH = 65%]
Pressure (altimeter): 30.32 inches Hg (1027.0 mb)
Winds: from the S (170 degrees) at 6 MPH (5 knots; 2.6 m/s)
Visibility: missing
Ceiling: at least 12,000 feet AGL
Clouds: sky clear below 12,000 feet AGL
Weather: no significant weather observed at this time

METAR text: EKAH 241120Z 14005KT 100V220 CAVOK 22/14 Q1027
Conditions at: EKAH (TIRSTRUP (CIV/MI, DK) observed 1120 UTC 24 August 2019
Temperature: 22.0°C (72°F)
Dewpoint: 14.0°C (57°F) [RH = 60%]
Pressure (altimeter): 30.32 inches Hg (1027.0 mb)
Winds: from the SE (140 degrees) at 6 MPH (5 knots; 2.6 m/s)
Visibility: 6 or more miles (10+ km)
Ceiling: ceiling and visibility are OK
Clouds: unknown
Weather: no significant weather observed at this time

METAR text: EKAH 241020Z AUTO 13005KT 100V210 9999NDV NCD 22/14 Q1027
Conditions at: EKAH (TIRSTRUP (CIV/MI, DK) observed 1020 UTC 24 August 2019
Temperature: 22.0°C (72°F)
Dewpoint: 14.0°C (57°F) [RH = 60%]
Pressure (altimeter): 30.32 inches Hg (1027.0 mb)
Winds: from the SE (130 degrees) at 6 MPH (5 knots; 2.6 m/s)
Visibility: missing
Ceiling: at least 12,000 feet AGL
Clouds: sky clear below 12,000 feet AGL
Weather: no significant weather observed at this time

METAR text: EKAH 240950Z AUTO 13006KT 9999NDV NCD 22/15 Q1027
Conditions at: EKAH (TIRSTRUP (CIV/MI, DK) observed 0950 UTC 24 August 2019
Temperature: 22.0°C (72°F)
Dewpoint: 15.0°C (59°F) [RH = 65%]
Pressure (altimeter): 30.32 inches Hg (1027.0 mb)
Winds: from the SE (130 degrees) at 7 MPH (6 knots; 3.1 m/s)
Visibility: missing
Ceiling: at least 12,000 feet AGL
Clouds: sky clear below 12,000 feet AGL
Weather: no significant weather observed at this time

METAR text: EKAH 240920Z AUTO VRB03KT 9999NDV NCD 21/16 Q1027
Conditions at: EKAH (TIRSTRUP (CIV/MI, DK) observed 0920 UTC 24 August 2019
Temperature: 21.0°C (70°F)
Dewpoint: 16.0°C (61°F) [RH = 73%]
Pressure (altimeter): 30.32 inches Hg (1027.0 mb)
Winds: variable direction winds at 3 MPH (3 knots; 1.5 m/s)
Visibility: missing
Ceiling: at least 12,000 feet AGL
Clouds: sky clear below 12,000 feet AGL
Weather: no significant weather observed at this time

METAR text: EKAH 240850Z AUTO 12002KT 9999NDV NCD 20/16 Q1027
Conditions at: EKAH (TIRSTRUP (CIV/MI, DK) observed 0850 UTC 24 August 2019
Temperature: 20.0°C (68°F)
Dewpoint: 16.0°C (61°F) [RH = 78%]
Pressure (altimeter): 30.32 inches Hg (1027.0 mb)
Winds: from the ESE (120 degrees) at 2 MPH (2 knots; 1.0 m/s)
Visibility: missing
Ceiling: at least 12,000 feet AGL
Clouds: sky clear below 12,000 feet AGL
Weather: no significant weather observed at this time

METAR text: EKAH 240820Z AUTO 08002KT 8000NDV NCD 18/17 Q1027
Conditions at: EKAH (TIRSTRUP (CIV/MI, DK) observed 0820 UTC 24 August 2019
Temperature: 18.0°C (64°F)
Dewpoint: 17.0°C (63°F) [RH = 94%]
Pressure (altimeter): 30.32 inches Hg (1027.0 mb)
Winds: from the E (80 degrees) at 2 MPH (2 knots; 1.0 m/s)
Visibility: missing
Ceiling: at least 12,000 feet AGL
Clouds: sky clear below 12,000 feet AGL
Weather: no significant weather observed at this time

METAR text: EKAH 240750Z AUTO 07002KT 3800NDV BR FEW001/// 17/17 Q1027
Conditions at: EKAH (TIRSTRUP (CIV/MI, DK) observed 0750 UTC 24 August 2019
Temperature: 17.0°C (63°F)
Dewpoint: 17.0°C (63°F) [RH = 100%]
Pressure (altimeter): 30.32 inches Hg (1027.0 mb)
Winds: from the ENE (70 degrees) at 2 MPH (2 knots; 1.0 m/s)
Visibility: missing
Ceiling: at least 12,000 feet AGL
Clouds: few clouds at 100 feet AGL
Weather: BR  (mist)

METAR text: EKAH 240720Z AUTO 35001KT 0800NDV R10R/P1500U R28L/P1500D FG VV001 15/15 Q1027
Conditions at: EKAH (TIRSTRUP (CIV/MI, DK) observed 0720 UTC 24 August 2019
Temperature: 15.0°C (59°F)
Dewpoint: 15.0°C (59°F) [RH = 100%]
Pressure (altimeter): 30.32 inches Hg (1027.0 mb)
Winds: from the N (350 degrees) at 1 MPH (1 knots; 0.5 m/s)
Visibility: missing
Ceiling: indefinite ceiling with vertical visibility of 100 feet AGL
Clouds: obscured sky
Weather: FG  (fog)

METAR text: EKAH 240650Z AUTO 00000KT 0400NDV R10R/0800U R28L/0700U FG VV001 15/15 Q1027
Conditions at: EKAH (TIRSTRUP (CIV/MI, DK) observed 0650 UTC 24 August 2019
Temperature: 15.0°C (59°F)
Dewpoint: 15.0°C (59°F) [RH = 100%]
Pressure (altimeter): 30.32 inches Hg (1027.0 mb)
Winds: calm
Visibility: missing
Ceiling: indefinite ceiling with vertical visibility of 100 feet AGL
Clouds: obscured sky
Weather: FG  (fog)

METAR text: EKAH 240620Z AUTO 00000KT 0200NDV R10R/0500N R28L/0400N FG VV001 14/14 Q1027
Conditions at: EKAH (TIRSTRUP (CIV/MI, DK) observed 0620 UTC 24 August 2019
Temperature: 14.0°C (57°F)
Dewpoint: 14.0°C (57°F) [RH = 100%]
Pressure (altimeter): 30.32 inches Hg (1027.0 mb)
Winds: calm
Visibility: 0.31 miles (0.50 km)
Ceiling: indefinite ceiling with vertical visibility of 100 feet AGL
Clouds: obscured sky
Weather: FG  (fog)

METAR text: EKAH 240550Z AUTO 30001KT 0350NDV R10R/0500N R28L/0550N FG VV001 14/14 Q1027
Conditions at: EKAH (TIRSTRUP (CIV/MI, DK) observed 0550 UTC 24 August 2019
Temperature: 14.0°C (57°F)
Dewpoint: 14.0°C (57°F) [RH = 100%]
Pressure (altimeter): 30.32 inches Hg (1027.0 mb)
Winds: from the WNW (300 degrees) at 1 MPH (1 knots; 0.5 m/s)
Visibility: 0.31 miles (0.50 km)
Ceiling: indefinite ceiling with vertical visibility of 100 feet AGL
Clouds: obscured sky
Weather: FG  (fog)

METAR text: EKAH 240520Z AUTO 00000KT 0150NDV R10R/0300N R28L/0400N FG VV001 14/14 Q1027
Conditions at: EKAH (TIRSTRUP (CIV/MI, DK) observed 0520 UTC 24 August 2019
Temperature: 14.0°C (57°F)
Dewpoint: 14.0°C (57°F) [RH = 100%]
Pressure (altimeter): 30.32 inches Hg (1027.0 mb)
Winds: calm
Visibility: 0.19 miles (0.31 km)
Ceiling: indefinite ceiling with vertical visibility of 100 feet AGL
Clouds: obscured sky
Weather: FG  (fog)

METAR text: EKAH 240450Z AUTO 19001KT 0200NDV R10R/0300N R28L/0325N FG VV001 14/14 Q1027
Conditions at: EKAH (TIRSTRUP (CIV/MI, DK) observed 0450 UTC 24 August 2019
Temperature: 14.0°C (57°F)
Dewpoint: 14.0°C (57°F) [RH = 100%]
Pressure (altimeter): 30.32 inches Hg (1027.0 mb)
Winds: from the S (190 degrees) at 1 MPH (1 knots; 0.5 m/s)
Visibility: 0.19 miles (0.31 km)
Ceiling: indefinite ceiling with vertical visibility of 100 feet AGL
Clouds: obscured sky
Weather: FG  (fog)

METAR text: EKAH 240420Z AUTO 00000KT 0150NDV R10R/0325N R28L/0325N FG VV001 13/13 Q1026
Conditions at: EKAH (TIRSTRUP (CIV/MI, DK) observed 0420 UTC 24 August 2019
Temperature: 13.0°C (55°F)
Dewpoint: 13.0°C (55°F) [RH = 100%]
Pressure (altimeter): 30.30 inches Hg (1026.0 mb)
Winds: calm
Visibility: 0.20 miles (0.32 km)
Ceiling: indefinite ceiling with vertical visibility of 100 feet AGL
Clouds: obscured sky
Weather: FG  (fog)

METAR text: EKAH 240350Z AUTO 00000KT 0200NDV R10R/0700D R28L/0450D FG VV001 12/12 Q1026
Conditions at: EKAH (TIRSTRUP (CIV/MI, DK) observed 0350 UTC 24 August 2019
Temperature: 12.0°C (54°F)
Dewpoint: 12.0°C (54°F) [RH = 100%]
Pressure (altimeter): 30.30 inches Hg (1026.0 mb)
Winds: calm
Visibility: missing
Ceiling: indefinite ceiling with vertical visibility of 100 feet AGL
Clouds: obscured sky
Weather: FG  (fog)

METAR text: EKAH 240320Z AUTO 00000KT 0100NDV R10R/0325N R28L/0550N FG VV004 12/11 Q1026
Conditions at: EKAH (TIRSTRUP (CIV/MI, DK) observed 0320 UTC 24 August 2019
Temperature: 12.0°C (54°F)
Dewpoint: 11.0°C (52°F) [RH = 94%]
Pressure (altimeter): 30.30 inches Hg (1026.0 mb)
Winds: calm
Visibility: 0.20 miles (0.32 km)
Ceiling: indefinite ceiling with vertical visibility of 400 feet AGL
Clouds: obscured sky
Weather: FG  (fog)

METAR text: EKAH 240250Z AUTO 09001KT 3800NDV R10R/P1500D R28L/0400D BR BKN006/// 12/11 Q1026
Conditions at: EKAH (TIRSTRUP (CIV/MI, DK) observed 0250 UTC 24 August 2019
Temperature: 12.0°C (54°F)
Dewpoint: 11.0°C (52°F) [RH = 94%]
Pressure (altimeter): 30.30 inches Hg (1026.0 mb)
Winds: from the E (90 degrees) at 1 MPH (1 knots; 0.5 m/s)
Visibility: missing
Ceiling: 600 feet AGL
Clouds: broken clouds at 600 feet AGL
Weather: BR  (mist)

METAR text: EKAH 240220Z AUTO 00000KT 1900NDV R10R/0400D R28L/1100D BR VV004 13/12 Q1026
Conditions at: EKAH (TIRSTRUP (CIV/MI, DK) observed 0220 UTC 24 August 2019
Temperature: 13.0°C (55°F)
Dewpoint: 12.0°C (54°F) [RH = 94%]
Pressure (altimeter): 30.30 inches Hg (1026.0 mb)
Winds: calm
Visibility: missing
Ceiling: indefinite ceiling with vertical visibility of 400 feet AGL
Clouds: obscured sky
Weather: BR  (mist)

METAR text: EKAH 240150Z AUTO 00000KT 0900NDV R10R/P1500D R28L/P1500D FG BKN004/// 13/12 Q1026
Conditions at: EKAH (TIRSTRUP (CIV/MI, DK) observed 0150 UTC 24 August 2019
Temperature: 13.0°C (55°F)
Dewpoint: 12.0°C (54°F) [RH = 94%]
Pressure (altimeter): 30.30 inches Hg (1026.0 mb)
Winds: calm
Visibility: missing
Ceiling: 400 feet AGL
Clouds: broken clouds at 400 feet AGL
Weather: FG  (fog)

METAR text: EKAH 240120Z AUTO 00000KT 0350NDV R10R/P1500N R28L/P1500D FG NCD 14/13 Q1026
Conditions at: EKAH (TIRSTRUP (CIV/MI, DK) observed 0120 UTC 24 August 2019
Temperature: 14.0°C (57°F)
Dewpoint: 13.0°C (55°F) [RH = 94%]
Pressure (altimeter): 30.30 inches Hg (1026.0 mb)
Winds: calm
Visibility: 0.93 miles (1.50 km)
Ceiling: at least 12,000 feet AGL
Clouds: sky clear below 12,000 feet AGL
Weather: FG  (fog)

METAR text: EKAH 240050Z AUTO 30001KT 0250NDV R10R/P1500N R28L/P1500U FG NCD 14/13 Q1026
Conditions at: EKAH (TIRSTRUP (CIV/MI, DK) observed 0050 UTC 24 August 2019
Temperature: 14.0°C (57°F)
Dewpoint: 13.0°C (55°F) [RH = 94%]
Pressure (altimeter): 30.30 inches Hg (1026.0 mb)
Winds: from the WNW (300 degrees) at 1 MPH (1 knots; 0.5 m/s)
Visibility: 0.93 miles (1.50 km)
Ceiling: at least 12,000 feet AGL
Clouds: sky clear below 12,000 feet AGL
Weather: FG  (fog)

METAR text: EKAH 240020Z AUTO VRB01KT 6000NDV NCD 14/13 Q1026
Conditions at: EKAH (TIRSTRUP (CIV/MI, DK) observed 0020 UTC 24 August 2019
Temperature: 14.0°C (57°F)
Dewpoint: 13.0°C (55°F) [RH = 94%]
Pressure (altimeter): 30.30 inches Hg (1026.0 mb)
Winds: variable direction winds at 1 MPH (1 knots; 0.5 m/s)
Visibility: missing
Ceiling: at least 12,000 feet AGL
Clouds: sky clear below 12,000 feet AGL
Weather: no significant weather observed at this time

METAR text: EKAH 232350Z AUTO VRB02KT 8000NDV NCD 15/14 Q1026
Conditions at: EKAH (TIRSTRUP (CIV/MI, DK) observed 2350 UTC 23 August 2019
Temperature: 15.0°C (59°F)
Dewpoint: 14.0°C (57°F) [RH = 94%]
Pressure (altimeter): 30.30 inches Hg (1026.0 mb)
Winds: variable direction winds at 2 MPH (2 knots; 1.0 m/s)
Visibility: missing
Ceiling: at least 12,000 feet AGL
Clouds: sky clear below 12,000 feet AGL
Weather: no significant weather observed at this time

METAR text: EKAH 232320Z AUTO VRB01KT 9000NDV NCD 15/13 Q1026
Conditions at: EKAH (TIRSTRUP (CIV/MI, DK) observed 2320 UTC 23 August 2019
Temperature: 15.0°C (59°F)
Dewpoint: 13.0°C (55°F) [RH = 88%]
Pressure (altimeter): 30.30 inches Hg (1026.0 mb)
Winds: variable direction winds at 1 MPH (1 knots; 0.5 m/s)
Visibility: missing
Ceiling: at least 12,000 feet AGL
Clouds: sky clear below 12,000 feet AGL
Weather: no significant weather observed at this time

METAR text: EKAH 232250Z AUTO 26004KT 9999NDV NCD 15/13 Q1026
Conditions at: EKAH (TIRSTRUP (CIV/MI, DK) observed 2250 UTC 23 August 2019
Temperature: 15.0°C (59°F)
Dewpoint: 13.0°C (55°F) [RH = 88%]
Pressure (altimeter): 30.30 inches Hg (1026.0 mb)
Winds: from the W (260 degrees) at 5 MPH (4 knots; 2.1 m/s)
Visibility: missing
Ceiling: at least 12,000 feet AGL
Clouds: sky clear below 12,000 feet AGL
Weather: no significant weather observed at this time

METAR text: EKAH 232220Z AUTO 26002KT 9000NDV NCD 16/14 Q1026
Conditions at: EKAH (TIRSTRUP (CIV/MI, DK) observed 2220 UTC 23 August 2019
Temperature: 16.0°C (61°F)
Dewpoint: 14.0°C (57°F) [RH = 88%]
Pressure (altimeter): 30.30 inches Hg (1026.0 mb)
Winds: from the W (260 degrees) at 2 MPH (2 knots; 1.0 m/s)
Visibility: missing
Ceiling: at least 12,000 feet AGL
Clouds: sky clear below 12,000 feet AGL
Weather: no significant weather observed at this time

METAR text: EKAH 232150Z AUTO 26002KT 9999NDV NCD 16/14 Q1025
Conditions at: EKAH (TIRSTRUP (CIV/MI, DK) observed 2150 UTC 23 August 2019
Temperature: 16.0°C (61°F)
Dewpoint: 14.0°C (57°F) [RH = 88%]
Pressure (altimeter): 30.27 inches Hg (1025.0 mb)
Winds: from the W (260 degrees) at 2 MPH (2 knots; 1.0 m/s)
Visibility: missing
Ceiling: at least 12,000 feet AGL
Clouds: sky clear below 12,000 feet AGL
Weather: no significant weather observed at this time

METAR text: EKAH 232120Z AUTO 25002KT 9999NDV NCD 16/14 Q1025
Conditions at: EKAH (TIRSTRUP (CIV/MI, DK) observed 2120 UTC 23 August 2019
Temperature: 16.0°C (61°F)
Dewpoint: 14.0°C (57°F) [RH = 88%]
Pressure (altimeter): 30.27 inches Hg (1025.0 mb)
Winds: from the WSW (250 degrees) at 2 MPH (2 knots; 1.0 m/s)
Visibility: missing
Ceiling: at least 12,000 feet AGL
Clouds: sky clear below 12,000 feet AGL
Weather: no significant weather observed at this time

METAR text: EKAH 232050Z AUTO 22001KT 9999NDV NCD 16/14 Q1025
Conditions at: EKAH (TIRSTRUP (CIV/MI, DK) observed 2050 UTC 23 August 2019
Temperature: 16.0°C (61°F)
Dewpoint: 14.0°C (57°F) [RH = 88%]
Pressure (altimeter): 30.27 inches Hg (1025.0 mb)
Winds: from the SW (220 degrees) at 1 MPH (1 knots; 0.5 m/s)
Visibility: missing
Ceiling: at least 12,000 feet AGL
Clouds: sky clear below 12,000 feet AGL
Weather: no significant weather observed at this time

METAR text: EKAH 232020Z AUTO 24002KT 9999NDV NCD 17/14 Q1025
Conditions at: EKAH (TIRSTRUP (CIV/MI, DK) observed 2020 UTC 23 August 2019
Temperature: 17.0°C (63°F)
Dewpoint: 14.0°C (57°F) [RH = 82%]
Pressure (altimeter): 30.27 inches Hg (1025.0 mb)
Winds: from the WSW (240 degrees) at 2 MPH (2 knots; 1.0 m/s)
Visibility: missing
Ceiling: at least 12,000 feet AGL
Clouds: sky clear below 12,000 feet AGL
Weather: no significant weather observed at this time

METAR text: EKAH 231950Z AUTO 24002KT 9999NDV NCD 18/14 Q1025
Conditions at: EKAH (TIRSTRUP (CIV/MI, DK) observed 1950 UTC 23 August 2019
Temperature: 18.0°C (64°F)
Dewpoint: 14.0°C (57°F) [RH = 77%]
Pressure (altimeter): 30.27 inches Hg (1025.0 mb)
Winds: from the WSW (240 degrees) at 2 MPH (2 knots; 1.0 m/s)
Visibility: missing
Ceiling: at least 12,000 feet AGL
Clouds: sky clear below 12,000 feet AGL
Weather: no significant weather observed at this time

METAR text: EKAH 231920Z AUTO 25003KT 9999NDV NCD 18/14 Q1025
Conditions at: EKAH (TIRSTRUP (CIV/MI, DK) observed 1920 UTC 23 August 2019
Temperature: 18.0°C (64°F)
Dewpoint: 14.0°C (57°F) [RH = 77%]
Pressure (altimeter): 30.27 inches Hg (1025.0 mb)
Winds: from the WSW (250 degrees) at 3 MPH (3 knots; 1.5 m/s)
Visibility: missing
Ceiling: at least 12,000 feet AGL
Clouds: sky clear below 12,000 feet AGL
Weather: no significant weather observed at this time

METAR text: EKAH 231850Z AUTO 25003KT 9999NDV NCD 19/14 Q1025
Conditions at: EKAH (TIRSTRUP (CIV/MI, DK) observed 1850 UTC 23 August 2019
Temperature: 19.0°C (66°F)
Dewpoint: 14.0°C (57°F) [RH = 73%]
Pressure (altimeter): 30.27 inches Hg (1025.0 mb)
Winds: from the WSW (250 degrees) at 3 MPH (3 knots; 1.5 m/s)
Visibility: missing
Ceiling: at least 12,000 feet AGL
Clouds: sky clear below 12,000 feet AGL
Weather: no significant weather observed at this time

METAR text: EKAH 231820Z AUTO 25003KT 9999NDV NCD 20/15 Q1024
Conditions at: EKAH (TIRSTRUP (CIV/MI, DK) observed 1820 UTC 23 August 2019
Temperature: 20.0°C (68°F)
Dewpoint: 15.0°C (59°F) [RH = 73%]
Pressure (altimeter): 30.24 inches Hg (1024.0 mb)
Winds: from the WSW (250 degrees) at 3 MPH (3 knots; 1.5 m/s)
Visibility: missing
Ceiling: at least 12,000 feet AGL
Clouds: sky clear below 12,000 feet AGL
Weather: no significant weather observed at this time

METAR text: EKAH 231750Z AUTO 26005KT 9999NDV NCD 21/15 Q1024
Conditions at: EKAH (TIRSTRUP (CIV/MI, DK) observed 1750 UTC 23 August 2019
Temperature: 21.0°C (70°F)
Dewpoint: 15.0°C (59°F) [RH = 69%]
Pressure (altimeter): 30.24 inches Hg (1024.0 mb)
Winds: from the W (260 degrees) at 6 MPH (5 knots; 2.6 m/s)
Visibility: missing
Ceiling: at least 12,000 feet AGL
Clouds: sky clear below 12,000 feet AGL
Weather: no significant weather observed at this time

METAR text: EKAH 231720Z AUTO 26007KT 240V300 9999NDV NCD 22/15 Q1024
Conditions at: EKAH (TIRSTRUP (CIV/MI, DK) observed 1720 UTC 23 August 2019
Temperature: 22.0°C (72°F)
Dewpoint: 15.0°C (59°F) [RH = 65%]
Pressure (altimeter): 30.24 inches Hg (1024.0 mb)
Winds: from the W (260 degrees) at 8 MPH (7 knots; 3.6 m/s)
Visibility: missing
Ceiling: at least 12,000 feet AGL
Clouds: sky clear below 12,000 feet AGL
Weather: no significant weather observed at this time

METAR text: EKAH 231650Z AUTO 27008KT 9999NDV FEW039/// 23/15 Q1024
Conditions at: EKAH (TIRSTRUP (CIV/MI, DK) observed 1650 UTC 23 August 2019
Temperature: 23.0°C (73°F)
Dewpoint: 15.0°C (59°F) [RH = 61%]
Pressure (altimeter): 30.24 inches Hg (1024.0 mb)
Winds: from the W (270 degrees) at 9 MPH (8 knots; 4.1 m/s)
Visibility: missing
Ceiling: at least 12,000 feet AGL
Clouds: few clouds at 3900 feet AGL
Weather: no significant weather observed at this time

METAR text: EKAH 231620Z AUTO 27009KT 230V300 9999NDV SCT041/// 23/15 Q1024
Conditions at: EKAH (TIRSTRUP (CIV/MI, DK) observed 1620 UTC 23 August 2019
Temperature: 23.0°C (73°F)
Dewpoint: 15.0°C (59°F) [RH = 61%]
Pressure (altimeter): 30.24 inches Hg (1024.0 mb)
Winds: from the W (270 degrees) at 10 MPH (9 knots; 4.6 m/s)
Visibility: missing
Ceiling: at least 12,000 feet AGL
Clouds: scattered clouds at 4100 feet AGL
Weather: no significant weather observed at this time

METAR text: EKAH 231550Z AUTO 28011KT 9999NDV SCT042/// 23/15 Q1024
Conditions at: EKAH (TIRSTRUP (CIV/MI, DK) observed 1550 UTC 23 August 2019
Temperature: 23.0°C (73°F)
Dewpoint: 15.0°C (59°F) [RH = 61%]
Pressure (altimeter): 30.24 inches Hg (1024.0 mb)
Winds: from the W (280 degrees) at 13 MPH (11 knots; 5.7 m/s)
Visibility: missing
Ceiling: at least 12,000 feet AGL
Clouds: scattered clouds at 4200 feet AGL
Weather: no significant weather observed at this time

METAR text: EKAH 231520Z AUTO 26012KT 230V290 9999NDV SCT041/// 24/15 Q1024
Conditions at: EKAH (TIRSTRUP (CIV/MI, DK) observed 1520 UTC 23 August 2019
Temperature: 24.0°C (75°F)
Dewpoint: 15.0°C (59°F) [RH = 57%]
Pressure (altimeter): 30.24 inches Hg (1024.0 mb)
Winds: from the W (260 degrees) at 14 MPH (12 knots; 6.2 m/s)
Visibility: missing
Ceiling: at least 12,000 feet AGL
Clouds: scattered clouds at 4100 feet AGL
Weather: no significant weather observed at this time

METAR text: EKAH 231450Z AUTO 25011KT 220V280 9999NDV BKN038/// 24/15 Q1024
Conditions at: EKAH (TIRSTRUP (CIV/MI, DK) observed 1450 UTC 23 August 2019
Temperature: 24.0°C (75°F)
Dewpoint: 15.0°C (59°F) [RH = 57%]
Pressure (altimeter): 30.24 inches Hg (1024.0 mb)
Winds: from the WSW (250 degrees) at 13 MPH (11 knots; 5.7 m/s)
Visibility: missing
Ceiling: 3800 feet AGL
Clouds: broken clouds at 3800 feet AGL
Weather: no significant weather observed at this time

METAR text: EKAH 231420Z AUTO 24010KT 190V270 9999NDV SCT040/// 24/16 Q1024
Conditions at: EKAH (TIRSTRUP (CIV/MI, DK) observed 1420 UTC 23 August 2019
Temperature: 24.0°C (75°F)
Dewpoint: 16.0°C (61°F) [RH = 61%]
Pressure (altimeter): 30.24 inches Hg (1024.0 mb)
Winds: from the WSW (240 degrees) at 12 MPH (10 knots; 5.1 m/s)
Visibility: missing
Ceiling: at least 12,000 feet AGL
Clouds: scattered clouds at 4000 feet AGL
Weather: no significant weather observed at this time

METAR text: EKAH 231350Z AUTO 24010KT 200V300 9999NDV FEW032/// FEW045/// 24/17 Q1024
Conditions at: EKAH (TIRSTRUP (CIV/MI, DK) observed 1350 UTC 23 August 2019
Temperature: 24.0°C (75°F)
Dewpoint: 17.0°C (63°F) [RH = 65%]
Pressure (altimeter): 30.24 inches Hg (1024.0 mb)
Winds: from the WSW (240 degrees) at 12 MPH (10 knots; 5.1 m/s)
Visibility: missing
Ceiling: at least 12,000 feet AGL
Clouds: few clouds at 3200 feet AGL
few clouds at 4500 feet AGL
Weather: no significant weather observed at this time

METAR text: EKAH 231320Z AUTO 24010KT 190V270 9999NDV BKN036/// 23/16 Q1024
Conditions at: EKAH (TIRSTRUP (CIV/MI, DK) observed 1320 UTC 23 August 2019
Temperature: 23.0°C (73°F)
Dewpoint: 16.0°C (61°F) [RH = 65%]
Pressure (altimeter): 30.24 inches Hg (1024.0 mb)
Winds: from the WSW (240 degrees) at 12 MPH (10 knots; 5.1 m/s)
Visibility: missing
Ceiling: 3600 feet AGL
Clouds: broken clouds at 3600 feet AGL
Weather: no significant weather observed at this time

METAR text: EKAH 231250Z AUTO 24009G19KT 190V270 9999NDV BKN031/// 23/17 Q1023
Conditions at: EKAH (TIRSTRUP (CIV/MI, DK) observed 1250 UTC 23 August 2019
Temperature: 23.0°C (73°F)
Dewpoint: 17.0°C (63°F) [RH = 69%]
Pressure (altimeter): 30.21 inches Hg (1023.0 mb)
Winds: from the WSW (240 degrees) at 10 MPH (9 knots; 4.6 m/s)
gusting to 22 MPH (19 knots; 9.8 m/s)
Visibility: missing
Ceiling: 3100 feet AGL
Clouds: broken clouds at 3100 feet AGL
Weather: no significant weather observed at this time

METAR text: EKAH 231220Z AUTO 23010KT 200V270 9999NDV BKN039/// 23/17 Q1024
Conditions at: EKAH (TIRSTRUP (CIV/MI, DK) observed 1220 UTC 23 August 2019
Temperature: 23.0°C (73°F)
Dewpoint: 17.0°C (63°F) [RH = 69%]
Pressure (altimeter): 30.24 inches Hg (1024.0 mb)
Winds: from the SW (230 degrees) at 12 MPH (10 knots; 5.1 m/s)
Visibility: missing
Ceiling: 3900 feet AGL
Clouds: broken clouds at 3900 feet AGL
Weather: no significant weather observed at this time

METAR text: EKAH 231150Z AUTO 24006KT 190V280 9999NDV BKN027/// 21/17 Q1024
Conditions at: EKAH (TIRSTRUP (CIV/MI, DK) observed 1150 UTC 23 August 2019
Temperature: 21.0°C (70°F)
Dewpoint: 17.0°C (63°F) [RH = 78%]
Pressure (altimeter): 30.24 inches Hg (1024.0 mb)
Winds: from the WSW (240 degrees) at 7 MPH (6 knots; 3.1 m/s)
Visibility: missing
Ceiling: 2700 feet AGL
Clouds: broken clouds at 2700 feet AGL
Weather: no significant weather observed at this time

METAR text: EKAH 231120Z AUTO 24008KT 180V280 9999NDV OVC025/// 21/17 Q1024
Conditions at: EKAH (TIRSTRUP (CIV/MI, DK) observed 1120 UTC 23 August 2019
Temperature: 21.0°C (70°F)
Dewpoint: 17.0°C (63°F) [RH = 78%]
Pressure (altimeter): 30.24 inches Hg (1024.0 mb)
Winds: from the WSW (240 degrees) at 9 MPH (8 knots; 4.1 m/s)
Visibility: missing
Ceiling: 2500 feet AGL
Clouds: overcast cloud deck at 2500 feet AGL
Weather: no significant weather observed at this time

METAR text: EKAH 231050Z AUTO 24007KT 190V280 9999NDV OVC024/// 21/17 Q1024
Conditions at: EKAH (TIRSTRUP (CIV/MI, DK) observed 1050 UTC 23 August 2019
Temperature: 21.0°C (70°F)
Dewpoint: 17.0°C (63°F) [RH = 78%]
Pressure (altimeter): 30.24 inches Hg (1024.0 mb)
Winds: from the WSW (240 degrees) at 8 MPH (7 knots; 3.6 m/s)
Visibility: missing
Ceiling: 2400 feet AGL
Clouds: overcast cloud deck at 2400 feet AGL
Weather: no significant weather observed at this time

METAR text: EKAH 231020Z AUTO 24010KT 190V280 9999NDV BKN031/// 21/17 Q1023
Conditions at: EKAH (TIRSTRUP (CIV/MI, DK) observed 1020 UTC 23 August 2019
Temperature: 21.0°C (70°F)
Dewpoint: 17.0°C (63°F) [RH = 78%]
Pressure (altimeter): 30.21 inches Hg (1023.0 mb)
Winds: from the WSW (240 degrees) at 12 MPH (10 knots; 5.1 m/s)
Visibility: missing
Ceiling: 3100 feet AGL
Clouds: broken clouds at 3100 feet AGL
Weather: no significant weather observed at this time

METAR text: EKAH 230950Z AUTO 24010KT 180V280 9999NDV SCT024/// BKN043/// 21/17 Q1023
Conditions at: EKAH (TIRSTRUP (CIV/MI, DK) observed 0950 UTC 23 August 2019
Temperature: 21.0°C (70°F)
Dewpoint: 17.0°C (63°F) [RH = 78%]
Pressure (altimeter): 30.21 inches Hg (1023.0 mb)
Winds: from the WSW (240 degrees) at 12 MPH (10 knots; 5.1 m/s)
Visibility: missing
Ceiling: 4300 feet AGL
Clouds: scattered clouds at 2400 feet AGL
broken clouds at 4300 feet AGL
Weather: no significant weather observed at this time

METAR text: EKAH 230920Z AUTO 25009G19KT 210V280 9999NDV SCT022/// 21/16 Q1023
Conditions at: EKAH (TIRSTRUP (CIV/MI, DK) observed 0920 UTC 23 August 2019
Temperature: 21.0°C (70°F)
Dewpoint: 16.0°C (61°F) [RH = 73%]
Pressure (altimeter): 30.21 inches Hg (1023.0 mb)
Winds: from the WSW (250 degrees) at 10 MPH (9 knots; 4.6 m/s)
gusting to 22 MPH (19 knots; 9.8 m/s)
Visibility: missing
Ceiling: at least 12,000 feet AGL
Clouds: scattered clouds at 2200 feet AGL
Weather: no significant weather observed at this time

METAR text: EKAH 230850Z AUTO 24009G19KT 190V270 9999NDV SCT053/// 20/16 Q1023
Conditions at: EKAH (TIRSTRUP (CIV/MI, DK) observed 0850 UTC 23 August 2019
Temperature: 20.0°C (68°F)
Dewpoint: 16.0°C (61°F) [RH = 78%]
Pressure (altimeter): 30.21 inches Hg (1023.0 mb)
Winds: from the WSW (240 degrees) at 10 MPH (9 knots; 4.6 m/s)
gusting to 22 MPH (19 knots; 9.8 m/s)
Visibility: missing
Ceiling: at least 12,000 feet AGL
Clouds: scattered clouds at 5300 feet AGL
Weather: no significant weather observed at this time

METAR text: EKAH 230820Z AUTO 24009KT 180V270 9999NDV FEW018/// FEW043/// BKN060/// 21/16 Q1023
Conditions at: EKAH (TIRSTRUP (CIV/MI, DK) observed 0820 UTC 23 August 2019
Temperature: 21.0°C (70°F)
Dewpoint: 16.0°C (61°F) [RH = 73%]
Pressure (altimeter): 30.21 inches Hg (1023.0 mb)
Winds: from the WSW (240 degrees) at 10 MPH (9 knots; 4.6 m/s)
Visibility: missing
Ceiling: 6000 feet AGL
Clouds: few clouds at 1800 feet AGL
few clouds at 4300 feet AGL
broken clouds at 6000 feet AGL
Weather: no significant weather observed at this time

METAR text: EKAH 230750Z AUTO 22009KT 180V260 9999NDV BKN062/// 19/15 Q1023
Conditions at: EKAH (TIRSTRUP (CIV/MI, DK) observed 0750 UTC 23 August 2019
Temperature: 19.0°C (66°F)
Dewpoint: 15.0°C (59°F) [RH = 78%]
Pressure (altimeter): 30.21 inches Hg (1023.0 mb)
Winds: from the SW (220 degrees) at 10 MPH (9 knots; 4.6 m/s)
Visibility: missing
Ceiling: 6200 feet AGL
Clouds: broken clouds at 6200 feet AGL
Weather: no significant weather observed at this time

METAR text: EKAH 230720Z AUTO 22008KT 180V260 9999NDV BKN068/// 19/15 Q1023
Conditions at: EKAH (TIRSTRUP (CIV/MI, DK) observed 0720 UTC 23 August 2019
Temperature: 19.0°C (66°F)
Dewpoint: 15.0°C (59°F) [RH = 78%]
Pressure (altimeter): 30.21 inches Hg (1023.0 mb)
Winds: from the SW (220 degrees) at 9 MPH (8 knots; 4.1 m/s)
Visibility: missing
Ceiling: 6800 feet AGL
Clouds: broken clouds at 6800 feet AGL
Weather: no significant weather observed at this time

METAR text: EKAH 230650Z AUTO 21007KT 160V310 9999NDV BKN070/// 19/15 Q1023
Conditions at: EKAH (TIRSTRUP (CIV/MI, DK) observed 0650 UTC 23 August 2019
Temperature: 19.0°C (66°F)
Dewpoint: 15.0°C (59°F) [RH = 78%]
Pressure (altimeter): 30.21 inches Hg (1023.0 mb)
Winds: from the SSW (210 degrees) at 8 MPH (7 knots; 3.6 m/s)
Visibility: missing
Ceiling: 7000 feet AGL
Clouds: broken clouds at 7000 feet AGL
Weather: no significant weather observed at this time

METAR text: EKAH 230620Z AUTO 21006KT 170V260 9999NDV SCT068/// SCT094/// 17/15 Q1023
Conditions at: EKAH (TIRSTRUP (CIV/MI, DK) observed 0620 UTC 23 August 2019
Temperature: 17.0°C (63°F)
Dewpoint: 15.0°C (59°F) [RH = 88%]
Pressure (altimeter): 30.21 inches Hg (1023.0 mb)
Winds: from the SSW (210 degrees) at 7 MPH (6 knots; 3.1 m/s)
Visibility: missing
Ceiling: at least 12,000 feet AGL
Clouds: scattered clouds at 6800 feet AGL
scattered clouds at 9400 feet AGL
Weather: no significant weather observed at this time

METAR text: EKAH 230550Z AUTO 20005KT 160V240 9999NDV OVC067/// 17/14 Q1022
Conditions at: EKAH (TIRSTRUP (CIV/MI, DK) observed 0550 UTC 23 August 2019
Temperature: 17.0°C (63°F)
Dewpoint: 14.0°C (57°F) [RH = 82%]
Pressure (altimeter): 30.18 inches Hg (1022.0 mb)
Winds: from the SSW (200 degrees) at 6 MPH (5 knots; 2.6 m/s)
Visibility: missing
Ceiling: 6700 feet AGL
Clouds: overcast cloud deck at 6700 feet AGL
Weather: no significant weather observed at this time

METAR text: EKAH 230520Z AUTO 19005KT 150V230 9999NDV BKN065/// 17/14 Q1022
Conditions at: EKAH (TIRSTRUP (CIV/MI, DK) observed 0520 UTC 23 August 2019
Temperature: 17.0°C (63°F)
Dewpoint: 14.0°C (57°F) [RH = 82%]
Pressure (altimeter): 30.18 inches Hg (1022.0 mb)
Winds: from the S (190 degrees) at 6 MPH (5 knots; 2.6 m/s)
Visibility: missing
Ceiling: 6500 feet AGL
Clouds: broken clouds at 6500 feet AGL
Weather: no significant weather observed at this time

METAR text: EKAH 230450Z AUTO 20004KT 100V240 9999NDV FEW043/// BKN065/// 17/14 Q1022
Conditions at: EKAH (TIRSTRUP (CIV/MI, DK) observed 0450 UTC 23 August 2019
Temperature: 17.0°C (63°F)
Dewpoint: 14.0°C (57°F) [RH = 82%]
Pressure (altimeter): 30.18 inches Hg (1022.0 mb)
Winds: from the SSW (200 degrees) at 5 MPH (4 knots; 2.1 m/s)
Visibility: missing
Ceiling: 6500 feet AGL
Clouds: few clouds at 4300 feet AGL
broken clouds at 6500 feet AGL
Weather: no significant weather observed at this time

METAR text: EKAH 230420Z AUTO 21005KT 160V260 9999NDV BKN075/// 17/14 Q1022
Conditions at: EKAH (TIRSTRUP (CIV/MI, DK) observed 0420 UTC 23 August 2019
Temperature: 17.0°C (63°F)
Dewpoint: 14.0°C (57°F) [RH = 82%]
Pressure (altimeter): 30.18 inches Hg (1022.0 mb)
Winds: from the SSW (210 degrees) at 6 MPH (5 knots; 2.6 m/s)
Visibility: missing
Ceiling: 7500 feet AGL
Clouds: broken clouds at 7500 feet AGL
Weather: no significant weather observed at this time

METAR text: EKAH 230350Z AUTO 21005KT 140V270 9999NDV FEW044/// BKN095/// BKN130/// 17/14 Q1022
Conditions at: EKAH (TIRSTRUP (CIV/MI, DK) observed 0350 UTC 23 August 2019
Temperature: 17.0°C (63°F)
Dewpoint: 14.0°C (57°F) [RH = 82%]
Pressure (altimeter): 30.18 inches Hg (1022.0 mb)
Winds: from the SSW (210 degrees) at 6 MPH (5 knots; 2.6 m/s)
Visibility: missing
Ceiling: 9500 feet AGL
Clouds: few clouds at 4400 feet AGL
broken clouds at 9500 feet AGL
broken clouds at 13000 feet AGL
Weather: no significant weather observed at this time

METAR text: EKAH 230320Z AUTO 21005KT 160V270 9999NDV OVC087/// 17/14 Q1022
Conditions at: EKAH (TIRSTRUP (CIV/MI, DK) observed 0320 UTC 23 August 2019
Temperature: 17.0°C (63°F)
Dewpoint: 14.0°C (57°F) [RH = 82%]
Pressure (altimeter): 30.18 inches Hg (1022.0 mb)
Winds: from the SSW (210 degrees) at 6 MPH (5 knots; 2.6 m/s)
Visibility: missing
Ceiling: 8700 feet AGL
Clouds: overcast cloud deck at 8700 feet AGL
Weather: no significant weather observed at this time

METAR text: EKAH 230250Z AUTO 21007KT 170V280 9999NDV OVC088/// 17/14 Q1022
Conditions at: EKAH (TIRSTRUP (CIV/MI, DK) observed 0250 UTC 23 August 2019
Temperature: 17.0°C (63°F)
Dewpoint: 14.0°C (57°F) [RH = 82%]
Pressure (altimeter): 30.18 inches Hg (1022.0 mb)
Winds: from the SSW (210 degrees) at 8 MPH (7 knots; 3.6 m/s)
Visibility: missing
Ceiling: 8800 feet AGL
Clouds: overcast cloud deck at 8800 feet AGL
Weather: no significant weather observed at this time

METAR text: EKAH 230220Z AUTO 21006KT 170V260 9999NDV BKN070/// 17/14 Q1022
Conditions at: EKAH (TIRSTRUP (CIV/MI, DK) observed 0220 UTC 23 August 2019
Temperature: 17.0°C (63°F)
Dewpoint: 14.0°C (57°F) [RH = 82%]
Pressure (altimeter): 30.18 inches Hg (1022.0 mb)
Winds: from the SSW (210 degrees) at 7 MPH (6 knots; 3.1 m/s)
Visibility: missing
Ceiling: 7000 feet AGL
Clouds: broken clouds at 7000 feet AGL
Weather: no significant weather observed at this time

METAR text: EKAH 230150Z AUTO 21005KT 150V250 9999NDV OVC080/// 17/14 Q1022
Conditions at: EKAH (TIRSTRUP (CIV/MI, DK) observed 0150 UTC 23 August 2019
Temperature: 17.0°C (63°F)
Dewpoint: 14.0°C (57°F) [RH = 82%]
Pressure (altimeter): 30.18 inches Hg (1022.0 mb)
Winds: from the SSW (210 degrees) at 6 MPH (5 knots; 2.6 m/s)
Visibility: missing
Ceiling: 8000 feet AGL
Clouds: overcast cloud deck at 8000 feet AGL
Weather: no significant weather observed at this time

METAR text: EKAH 230120Z AUTO 21004KT 160V260 9999NDV BKN098/// 17/14 Q1023
Conditions at: EKAH (TIRSTRUP (CIV/MI, DK) observed 0120 UTC 23 August 2019
Temperature: 17.0°C (63°F)
Dewpoint: 14.0°C (57°F) [RH = 82%]
Pressure (altimeter): 30.21 inches Hg (1023.0 mb)
Winds: from the SSW (210 degrees) at 5 MPH (4 knots; 2.1 m/s)
Visibility: missing
Ceiling: 9800 feet AGL
Clouds: broken clouds at 9800 feet AGL
Weather: no significant weather observed at this time

Forecast for: EKAH (TIRSTRUP (CIV/MI, DK)
Text: TAF EKAH 241101Z 2412/2512 13005KT 9999 FEW040
Forecast period: 1200 UTC 24 August 2019 to 1200 UTC 25 August 2019
Forecast type: FROM: standard forecast or significant change
Winds: from the SE (130 degrees) at 6 MPH (5 knots; 2.6 m/s)
Visibility: 6 or more miles 10+ km)
Ceiling: at least 12,000 feet AGL
Clouds: few clouds at 4000 feet AGL
Weather: no significant weather forecast for this period
Text: TEMPO 2503/2506 2000 BR
Forecast period: 0300 to 0600 UTC 25 August 2019
Forecast type: TEMPORARY: The following changes expected for less than half the time period
Visibility: 1.24 miles (2.00 km)
Ceiling: unknown
Clouds: missing
Weather: BR  (mist)